Latest Coastal Weather Observations for Lucinda

IDQ60701

Issued at 5:22 pm EST Wednesday 8 February 2023 (issued every 10 minutes, with the page automatically refreshed every 10 minutes)

About coastal observations | Map of coastal stations | Coastal observations for QLD | Marine services | Other Formats
Station Details ID: 032141 Name: LUCINDA POINT Lat: -18.52 Lon: 146.39 Height: 10.0 m
Data from the previous 72 hours. | See also: Recent months at Lucinda
Date/Time
EST
Wind Sea
Height
m
Swell Vis
km
Cloud Weather Temp
°C
Press
MSL
hPa
Rain since
9am
mm
Dir  Spd
kts
Gust
kts
Height
m
Period
s
Dir
08/05:00pm SE 9 14 - - - - - - - - 1001.2 -
08/04:30pm ESE 9 14 - - - - - - - - 1001.3 -
08/04:00pm ESE 7 11 - - - - - - - - 1001.5 -
08/03:30pm ESE 7 9 - - - - - - - - 1001.9 -
08/03:00pm SSE 7 11 - - - - - - - - 1002.1 -
08/02:30pm S 12 16 - - - - - - - - 1002.5 -
08/02:00pm S 12 16 - - - - - - - - 1002.8 -
08/01:30pm S 16 19 - - - - - - - - 1003.1 -
08/01:00pm S 12 16 - - - - - - - - 1003.3 -
08/12:30pm S 12 16 - - - - - - - - 1003.8 -
08/12:00pm S 12 15 - - - - - - - - 1004.1 -
08/11:30am S 13 17 - - - - - - - - 1004.6 -
08/11:00am S 13 17 - - - - - - - - 1005.0 -
08/10:30am S 13 16 - - - - - - - - 1005.1 -
08/10:00am S 14 18 - - - - - - - - 1005.5 -
08/09:30am S 10 15 - - - - - - - - 1005.6 -
08/09:00am S 15 19 - - - - - - - - 1005.7 -
08/08:30am S 16 20 - - - - - - - - 1005.4 -
08/08:00am S 14 21 - - - - - - - - 1005.5 -
08/07:30am S 11 17 - - - - - - - - 1005.4 -
08/07:00am S 9 13 - - - - - - - - 1005.1 -
08/06:30am S 11 16 - - - - - - - - 1004.9 -
08/06:00am S 16 22 - - - - - - - - 1004.3 -
08/05:30am S 13 21 - - - - - - - - 1004.0 -
08/05:00am S 15 17 - - - - - - - - 1003.8 -
08/04:30am SE 15 28 - - - - - - - - 1004.1 -
08/04:23am SSE 16 26 - - - - - - - - 1003.9 -
08/04:00am S 17 22 - - - - - - - - 1003.9 -
08/03:30am S 20 27 - - - - - - - - 1003.8 -
08/03:26am S 16 26 - - - - - - - - 1003.9 -
08/03:00am S 15 20 - - - - - - - - 1004.1 -
08/02:30am S 13 19 - - - - - - - - 1004.3 -
08/02:00am S 19 29 - - - - - - - - 1004.4 -
08/01:53am S 16 26 - - - - - - - - 1004.1 -
08/01:30am S 13 15 - - - - - - - - 1004.6 -
08/01:00am S 13 17 - - - - - - - - 1005.1 -
08/12:30am S 8 12 - - - - - - - - 1005.7 -
08/12:00am SE 8 14 - - - - - - - - 1006.2 -
 
Date/Time
EST
Wind Sea
Height
m
Swell Vis
km
Cloud Weather Temp
°C
Press
MSL
hPa
Rain since
9am
mm
Dir  Spd
kts
Gust
kts
Height
m
Period
s
Dir
07/11:30pm SSE 8 14 - - - - - - - - 1006.6 -
07/11:00pm SE 9 14 - - - - - - - - 1006.7 -
07/10:30pm SSE 8 14 - - - - - - - - 1006.9 -
07/10:00pm S 7 10 - - - - - - - - 1007.1 -
07/09:30pm S 11 15 - - - - - - - - 1006.6 -
07/09:00pm S 14 16 - - - - - - - - 1006.6 -
07/08:30pm S 15 18 - - - - - - - - 1006.4 -
07/08:00pm SSE 8 14 - - - - - - - - 1006.1 -
07/07:47pm S 15 23 - - - - - - - - 1005.8 -
07/07:30pm S 10 13 - - - - - - - - 1005.7 -
07/07:00pm S 10 13 - - - - - - - - 1005.4 -
07/06:30pm S 9 11 - - - - - - - - 1005.0 -
07/06:00pm SSE 5 8 - - - - - - - - 1004.7 -
07/05:30pm S 4 6 - - - - - - - - 1004.5 -
07/05:00pm S 4 7 - - - - - - - - 1004.7 -
07/04:30pm SSW 8 11 - - - - - - - - 1005.1 -
07/04:00pm S 9 17 - - - - - - - - 1005.0 -
07/03:30pm SSE 8 12 - - - - - - - - 1004.9 -
07/03:00pm ESE 17 22 - - - - - - - - 1004.9 -
07/02:47pm ESE 14 22 - - - - - - - - 1004.9 -
07/02:30pm ESE 9 10 - - - - - - - - 1005.0 -
07/02:00pm SSE 7 11 - - - - - - - - 1005.5 -
07/01:30pm SE 14 22 - - - - - - - - 1005.8 -
07/01:00pm ESE 9 15 - - - - - - - - 1006.3 -
07/12:30pm SE 9 16 - - - - - - - - 1006.7 -
07/12:00pm S 14 16 - - - - - - - - 1006.8 -
07/11:30am S 14 16 - - - - - - - - 1007.2 -
07/11:00am SSW 11 14 - - - - - - - - 1007.3 -
07/10:30am SSW 11 14 - - - - - - - - 1007.8 -
07/10:00am S 14 16 - - - - - - - - 1007.8 -
07/09:30am S 12 14 - - - - - - - - 1008.0 -
07/09:00am S 13 18 - - - - - - - - 1007.9 -
07/08:30am S 13 16 - - - - - - - - 1007.7 -
07/08:00am S 13 15 - - - - - - - - 1007.4 -
07/07:30am S 12 14 - - - - - - - - 1007.5 -
07/07:00am SSE 7 10 - - - - - - - - 1007.4 -
07/06:30am S 9 12 - - - - - - - - 1007.0 -
07/06:00am S 4 7 - - - - - - - - 1006.6 -
07/05:30am SSE 5 8 - - - - - - - - 1006.2 -
07/05:00am SSE 8 13 - - - - - - - - 1006.2 -
07/04:30am SE 7 11 - - - - - - - - 1006.2 -
07/04:00am SE 7 11 - - - - - - - - 1006.1 -
07/03:30am SE 7 11 - - - - - - - - 1006.2 -
07/03:00am SE 6 10 - - - - - - - - 1006.3 -
07/02:30am SSE 8 14 - - - - - - - - 1006.4 -
07/02:00am SE 6 11 - - - - - - - - 1006.7 -
07/01:30am SE 7 12 - - - - - - - - 1007.0 -
07/01:00am ESE 7 11 - - - - - - - - 1007.2 -
07/12:30am SE 7 11 - - - - - - - - 1007.7 -
07/12:00am SE 8 12 - - - - - - - - 1008.0 -
 
Date/Time
EST
Wind Sea
Height
m
Swell Vis
km
Cloud Weather Temp
°C
Press
MSL
hPa
Rain since
9am
mm
Dir  Spd
kts
Gust
kts
Height
m
Period
s
Dir
06/11:30pm SE 8 12 - - - - - - - - 1008.3 -
06/11:00pm SE 7 13 - - - - - - - - 1008.4 -
06/10:30pm SE 8 14 - - - - - - - - 1008.5 -
06/10:00pm SE 8 14 - - - - - - - - 1008.7 -
06/09:30pm SE 8 14 - - - - - - - - 1008.6 -
06/09:00pm SE 10 18 - - - - - - - - 1008.4 -
06/08:30pm SE 12 19 - - - - - - - - 1008.0 -
06/08:00pm ESE 11 17 - - - - - - - - 1007.7 -
06/07:30pm ESE 11 17 - - - - - - - - 1007.4 -
06/07:00pm ESE 10 15 - - - - - - - - 1006.9 -
06/06:30pm ESE 12 16 - - - - - - - - 1006.6 -
06/06:00pm ESE 10 15 - - - - - - - - 1006.6 -
06/05:30pm SE 9 16 - - - - - - - - 1006.5 -
06/05:00pm ESE 9 16 - - - - - - - - 1006.4 -
06/04:30pm SE 10 14 - - - - - - - - 1006.5 -
06/04:00pm ESE 9 15 - - - - - - - - 1006.8 -
06/03:30pm SE 8 14 - - - - - - - - 1006.8 -
06/03:00pm ESE 7 12 - - - - - - - - 1007.0 -
06/02:30pm SE 8 13 - - - - - - - - 1006.9 -
06/02:00pm SE 9 16 - - - - - - - - 1007.0 -
06/01:30pm SE 10 16 - - - - - - - - 1007.3 -
06/01:00pm SE 9 13 - - - - - - - - 1007.7 -
06/12:30pm ESE 8 14 - - - - - - - - 1008.1 -
06/12:00pm SE 8 13 - - - - - - - - 1008.3 -
06/11:30am NE 6 8 - - - - - - - - 1008.8 -
06/11:00am NE 8 11 - - - - - - - - 1009.1 -
06/10:30am NNE 4 6 - - - - - - - - 1009.3 -
06/10:00am N 1 6 - - - - - - - - 1009.3 -
06/09:30am S 7 9 - - - - - - - - 1009.5 -
06/09:00am SE 4 8 - - - - - - - - 1009.5 -
06/08:30am S 7 11 - - - - - - - - 1009.4 -
06/08:00am S 9 13 - - - - - - - - 1009.5 -
06/07:30am ESE 5 8 - - - - - - - - 1009.4 -
06/07:00am SE 6 10 - - - - - - - - 1009.0 -
06/06:30am S 4 6 - - - - - - - - 1008.7 -
06/06:00am SE 3 5 - - - - - - - - 1008.4 -
06/05:30am S 6 7 - - - - - - - - 1008.0 -
06/05:00am SE 3 6 - - - - - - - - 1008.0 -
06/04:30am SSE 4 7 - - - - - - - - 1007.5 -
06/04:00am SE 9 17 - - - - - - - - 1008.3 -
06/03:30am S 14 17 - - - - - - - - 1007.5 -
06/03:00am S 13 16 - - - - - - - - 1007.4 -
06/02:30am S 9 14 - - - - - - - - 1007.0 -
06/02:00am S 8 13 - - - - - - - - 1006.8 -
06/01:30am ENE 4 6 - - - - - - - - 1007.1 -
06/01:00am ENE 7 10 - - - - - - - - 1007.3 -
06/12:30am E 7 9 - - - - - - - - 1007.8 -
06/12:00am N 12 17 - - - - - - - - 1008.3 -
 
Date/Time
EST
Wind Sea
Height
m
Swell Vis
km
Cloud Weather Temp
°C
Press
MSL
hPa
Rain since
9am
mm
Dir  Spd
kts
Gust
kts
Height
m
Period
s
Dir
05/11:30pm E 6 10 - - - - - - - - 1008.0 -
05/11:00pm ENE 10 13 - - - - - - - - 1008.2 -
05/10:30pm NE 12 14 - - - - - - - - 1008.0 -
05/10:00pm ENE 11 14 - - - - - - - - 1008.1 -
05/09:45pm NE 15 25 - - - - - - - - 1007.7 -
05/09:30pm ENE 11 13 - - - - - - - - 1007.7 -
05/09:00pm NE 12 14 - - - - - - - - 1007.6 -
05/08:30pm ENE 13 15 - - - - - - - - 1007.2 -
05/08:00pm ENE 13 16 - - - - - - - - 1006.9 -
05/07:30pm NE 14 16 - - - - - - - - 1006.6 -
05/07:00pm NE 13 15 - - - - - - - - 1006.4 -
05/06:30pm ENE 12 14 - - - - - - - - 1006.1 -
05/06:00pm NE 13 16 - - - - - - - - 1005.3 -
05/05:30pm NNE 8 11 - - - - - - - - 1005.1 -

Other formats

Comma delimited format used in spreadsheet applications
http://www.bom.gov.au/fwo/IDQ60701/IDQ60701.94295.axf

JavaScript Object Notation format (JSON) in row-major order
http://www.bom.gov.au/fwo/IDQ60701/IDQ60701.94295.json

Data quality

Most of these data are generated automatically and are frequently updated. Quality checks on data are not normally performed. It is possible for incorrect values to appear. Refer to information at About Latest Weather Observations and please check the disclaimer before using these data.